RWV weather

Public forecast

Using degrees Fahrenheit for public forecast. Weather courtesy of forecast.io.

Current aviation weather report (METAR) for Caldwell Municipal Airport

Retrieved 2020/08/12 23:35 UTC (0 seconds ago):

KRWV 122335Z AUTO 14010KT 10SM CLR 36/20 A2989 RMK AO2 T03640203

Closest aviation forecast (TAF) to Caldwell Municipal Airport

Closest forecast is Easterwood Field, 18.1 nm (33.6 km) ENE. Retrieved 2020/08/12 18:24 UTC (5 hours ago):

TAF KCLL 121722Z 1218/1318 22011KT P6SM FEW040 FM122100 18010KT P6SM FEW050 FM130900 19004KT P6SM SCT015 FM131500 21009KT P6SM SCT020